Terminal Aerodrome Forecast
Issued by NWS

Home | Current Version | Previous Version | Text Only | Print | Product List | Glossary On
Versions: 1 2 3 4 5 6 7 8 9 10 11 12 13 14 15 16 17 18
000
FTUS42 TJSJ 301120
TAFJSJ
TAF
TJSJ 301120Z 3012/3112 VRB03KT P6SM FEW030 SCT070 BKN110
     FM301400 06008KT P6SM VCSH SCT025 SCT070 BKN150
     FM301630 09008G15KT P6SM VCTS SCT025CB BKN040 OVC100
     FM302200 VRB06KT P6SM VCSH SCT030 SCT070 BKN090=

USA.gov is the U.S. government's official web portal to all federal, state and local government web resources and services.